Time;durP1;ratioP1;P1;durP2;ratioP2;P2;SDS_P1;SDS_P2;PMS_P1;PMS_P2;Temp;Humidity;BMP_temperature;BMP_pressure;BME280_temperature;BME280_humidity;BME280_pressure;Samples;Min_cycle;Max_cycle;Signal;HPM_P1;HPM_P2
2021/09/10 00:01:52;;;;;;;10.98;5.22;;;;;;;;;;5053854;28;20106;-54
2021/09/10 00:04:18;;;;;;;9.00;5.30;;;;;;;;;;5053795;28;20029;-54
2021/09/10 00:06:44;;;;;;;12.52;5.60;;;;;;;;;;5054213;28;20450;-54
2021/09/10 00:09:10;;;;;;;14.13;5.75;;;;;;;;;;5053738;28;20029;-54
2021/09/10 00:11:36;;;;;;;10.45;5.63;;;;;;;;;;5053018;28;20021;-54
2021/09/10 00:14:02;;;;;;;9.55;5.25;;;;;;;;;;5052306;28;20132;-53
2021/09/10 00:16:28;;;;;;;7.78;5.13;;;;;;;;;;5054123;28;20025;-53
2021/09/10 00:18:54;;;;;;;16.30;5.75;;;;;;;;;;5053759;28;20029;-53
2021/09/10 00:21:20;;;;;;;11.90;6.15;;;;;;;;;;5054371;28;20021;-53
2021/09/10 00:23:46;;;;;;;11.25;5.57;;;;;;;;;;5052827;28;20044;-54
2021/09/10 00:26:12;;;;;;;11.35;5.50;;;;;;;;;;5052462;28;20021;-53
2021/09/10 00:28:38;;;;;;;11.35;5.70;;;;;;;;;;5052422;28;20036;-54
2021/09/10 00:31:04;;;;;;;10.45;5.78;;;;;;;;;;5053841;28;20036;-53
2021/09/10 00:33:30;;;;;;;17.10;6.65;;;;;;;;;;5052407;28;20031;-54
2021/09/10 00:35:56;;;;;;;13.45;4.90;;;;;;;;;;5053281;28;20025;-54
2021/09/10 00:38:22;;;;;;;9.68;5.30;;;;;;;;;;5053777;28;20060;-54
2021/09/10 00:40:48;;;;;;;9.57;5.70;;;;;;;;;;5051410;28;20021;-54
2021/09/10 00:43:14;;;;;;;8.25;5.03;;;;;;;;;;5052148;28;20107;-53
2021/09/10 00:45:44;;;;;;;9.70;5.65;;;;;;;;;;5052765;28;20443;-54
2021/09/10 00:48:10;;;;;;;11.25;5.53;;;;;;;;;;5052822;28;20037;-53
2021/09/10 00:50:36;;;;;;;8.35;5.15;;;;;;;;;;5053259;28;20028;-54
2021/09/10 00:53:02;;;;;;;10.55;5.93;;;;;;;;;;5053185;28;20021;-53
2021/09/10 00:55:28;;;;;;;11.60;5.43;;;;;;;;;;5051428;28;20146;-54
2021/09/10 00:57:54;;;;;;;10.82;5.60;;;;;;;;;;5051999;28;20083;-53
2021/09/10 01:00:20;;;;;;;13.63;6.10;;;;;;;;;;5053188;28;20021;-54
2021/09/10 01:02:47;;;;;;;9.98;5.88;;;;;;;;;;5053140;28;20035;-54
2021/09/10 01:05:13;;;;;;;9.05;5.80;;;;;;;;;;5052217;28;20474;-53
2021/09/10 01:07:39;;;;;;;8.70;5.28;;;;;;;;;;5052725;28;20523;-54
2021/09/10 01:10:06;;;;;;;8.30;4.72;;;;;;;;;;5052768;28;20466;-54
2021/09/10 01:12:32;;;;;;;12.40;5.63;;;;;;;;;;5052274;28;20462;-54
2021/09/10 01:14:59;;;;;;;12.13;5.35;;;;;;;;;;5051344;28;20033;-53
2021/09/10 01:17:25;;;;;;;11.95;5.38;;;;;;;;;;5053131;28;20029;-53
2021/09/10 01:19:51;;;;;;;7.18;5.13;;;;;;;;;;5053337;28;20040;-54
2021/09/10 01:22:17;;;;;;;6.38;4.88;;;;;;;;;;5052651;28;20077;-53
2021/09/10 01:25:02;;;;;;;8.38;5.18;;;;;;;;;;5052082;28;20025;-54
2021/09/10 01:27:28;;;;;;;17.60;5.70;;;;;;;;;;5051889;28;20367;-53
2021/09/10 01:29:54;;;;;;;10.35;5.53;;;;;;;;;;5051974;28;20039;-54
2021/09/10 01:32:20;;;;;;;10.10;5.10;;;;;;;;;;5052414;28;20025;-53
2021/09/10 01:34:46;;;;;;;11.88;5.72;;;;;;;;;;5051763;28;20032;-54
2021/09/10 01:37:12;;;;;;;8.73;5.15;;;;;;;;;;5053108;28;20079;-54
2021/09/10 01:39:38;;;;;;;10.68;5.47;;;;;;;;;;5052703;28;20405;-54
2021/09/10 01:42:04;;;;;;;14.52;5.38;;;;;;;;;;5052078;28;20025;-54
2021/09/10 01:44:30;;;;;;;8.02;4.25;;;;;;;;;;5052719;28;20093;-54
2021/09/10 01:46:56;;;;;;;8.10;5.25;;;;;;;;;;5056591;28;20048;-53
2021/09/10 01:49:22;;;;;;;9.95;5.63;;;;;;;;;;5056418;28;20336;-53
2021/09/10 01:51:48;;;;;;;14.18;5.60;;;;;;;;;;5056747;28;20017;-54
2021/09/10 01:54:14;;;;;;;9.52;5.13;;;;;;;;;;5056076;28;20047;-53
2021/09/10 01:56:40;;;;;;;8.43;5.43;;;;;;;;;;5056035;28;20025;-53
2021/09/10 01:59:06;;;;;;;8.13;5.20;;;;;;;;;;5055593;28;20040;-53
2021/09/10 02:01:34;;;;;;;9.93;5.55;;;;;;;;;;5056702;28;20033;-53
2021/09/10 02:04:00;;;;;;;8.30;5.32;;;;;;;;;;5055101;28;20515;-53
2021/09/10 02:06:27;;;;;;;12.00;6.05;;;;;;;;;;5056339;28;20104;-53
2021/09/10 02:08:53;;;;;;;13.95;6.28;;;;;;;;;;5056381;28;20041;-53
2021/09/10 02:11:19;;;;;;;11.13;6.28;;;;;;;;;;5056120;28;20033;-53
2021/09/10 02:13:46;;;;;;;16.30;6.40;;;;;;;;;;5054037;28;20521;-53
2021/09/10 02:16:12;;;;;;;11.50;6.60;;;;;;;;;;5056115;28;20025;-53
2021/09/10 02:18:38;;;;;;;13.93;6.40;;;;;;;;;;5055835;28;20025;-53
2021/09/10 02:21:05;;;;;;;11.73;6.43;;;;;;;;;;5056351;28;20079;-53
2021/09/10 02:23:31;;;;;;;15.18;6.70;;;;;;;;;;5055763;28;20035;-54
2021/09/10 02:25:57;;;;;;;15.15;6.85;;;;;;;;;;5055637;28;20438;-53
2021/09/10 02:28:24;;;;;;;15.73;7.10;;;;;;;;;;5054605;28;20043;-54
2021/09/10 02:30:50;;;;;;;12.88;7.13;;;;;;;;;;5055765;28;20032;-53
2021/09/10 02:33:16;;;;;;;17.85;7.60;;;;;;;;;;5055718;28;20029;-54
2021/09/10 02:35:42;;;;;;;14.50;8.00;;;;;;;;;;5041416;28;20443;-54
2021/09/10 02:38:08;;;;;;;14.15;7.63;;;;;;;;;;5035653;28;20060;-53
2021/09/10 02:40:34;;;;;;;12.82;7.25;;;;;;;;;;5035810;28;20251;-54
2021/09/10 02:43:00;;;;;;;11.15;6.45;;;;;;;;;;5054418;28;20028;-54
2021/09/10 02:45:26;;;;;;;8.60;5.22;;;;;;;;;;5054185;28;20033;-54
2021/09/10 02:47:52;;;;;;;11.88;5.57;;;;;;;;;;5055442;28;20025;-53
2021/09/10 02:50:18;;;;;;;7.43;5.50;;;;;;;;;;5055368;28;20462;-54
2021/09/10 02:52:44;;;;;;;12.05;5.88;;;;;;;;;;5055463;28;20457;-54
2021/09/10 02:55:11;;;;;;;8.57;4.97;;;;;;;;;;5054638;28;20025;-54
2021/09/10 02:57:37;;;;;;;11.85;6.60;;;;;;;;;;5054176;28;20348;-53
2021/09/10 03:00:04;;;;;;;10.95;6.63;;;;;;;;;;5053894;28;20354;-54
2021/09/10 03:02:30;;;;;;;13.80;6.82;;;;;;;;;;5054939;28;20143;-53
2021/09/10 03:04:56;;;;;;;12.75;6.30;;;;;;;;;;5054391;28;20044;-53
2021/09/10 03:07:22;;;;;;;11.93;6.43;;;;;;;;;;5054889;28;20362;-54
2021/09/10 03:09:48;;;;;;;8.23;5.50;;;;;;;;;;5055146;28;20036;-54
2021/09/10 03:12:14;;;;;;;10.95;5.82;;;;;;;;;;5054363;28;20079;-54
2021/09/10 03:14:40;;;;;;;12.10;5.95;;;;;;;;;;5053311;28;20421;-53
2021/09/10 03:17:06;;;;;;;15.02;5.85;;;;;;;;;;5054617;28;20041;-53
2021/09/10 03:19:32;;;;;;;11.68;5.70;;;;;;;;;;5054732;28;20060;-53
2021/09/10 03:21:58;;;;;;;9.55;5.53;;;;;;;;;;5055047;28;20031;-54
2021/09/10 03:24:24;;;;;;;9.32;5.70;;;;;;;;;;5054131;28;20021;-54
2021/09/10 03:26:50;;;;;;;11.30;5.45;;;;;;;;;;5054047;28;20112;-54
2021/09/10 03:29:16;;;;;;;8.48;5.18;;;;;;;;;;5053906;28;20119;-53
2021/09/10 03:31:42;;;;;;;11.20;5.50;;;;;;;;;;5054727;28;20120;-53
2021/09/10 03:34:08;;;;;;;7.30;4.90;;;;;;;;;;5053745;28;20039;-54
2021/09/10 03:36:34;;;;;;;10.60;5.28;;;;;;;;;;5054841;28;20017;-53
2021/09/10 03:39:00;;;;;;;11.27;5.97;;;;;;;;;;5055094;28;20107;-53
2021/09/10 03:41:26;;;;;;;16.92;6.28;;;;;;;;;;5053879;28;20021;-53
2021/09/10 03:43:55;;;;;;;11.35;6.30;;;;;;;;;;5053954;28;20035;-53
2021/09/10 03:46:21;;;;;;;8.48;5.55;;;;;;;;;;5053537;28;20033;-53
2021/09/10 03:48:47;;;;;;;13.57;5.68;;;;;;;;;;5054255;28;20040;-54
2021/09/10 03:51:13;;;;;;;8.63;5.60;;;;;;;;;;5054507;28;20366;-53
2021/09/10 03:53:40;;;;;;;9.27;5.70;;;;;;;;;;5053496;28;20500;-53
2021/09/10 03:56:06;;;;;;;9.65;5.65;;;;;;;;;;5053457;28;20037;-53
2021/09/10 03:58:32;;;;;;;8.88;5.28;;;;;;;;;;5053894;28;20032;-54
2021/09/10 04:00:58;;;;;;;11.15;5.68;;;;;;;;;;5053376;28;20063;-54
2021/09/10 04:03:24;;;;;;;9.88;5.30;;;;;;;;;;5053424;28;20100;-53
2021/09/10 04:05:50;;;;;;;8.18;5.18;;;;;;;;;;5053579;28;20032;-54
2021/09/10 04:08:17;;;;;;;10.48;5.97;;;;;;;;;;5053014;28;20366;-53
2021/09/10 04:10:43;;;;;;;10.00;5.68;;;;;;;;;;5054064;28;20155;-53
2021/09/10 04:13:09;;;;;;;8.35;5.28;;;;;;;;;;5053429;28;20413;-53
2021/09/10 04:15:35;;;;;;;10.68;6.30;;;;;;;;;;5052333;28;20067;-53
2021/09/10 04:18:02;;;;;;;10.73;5.43;;;;;;;;;;5053741;28;20280;-53
2021/09/10 04:20:28;;;;;;;8.35;5.35;;;;;;;;;;5053762;28;20029;-53
2021/09/10 04:22:54;;;;;;;9.73;5.68;;;;;;;;;;5053536;28;20029;-53
2021/09/10 04:25:20;;;;;;;10.48;5.85;;;;;;;;;;5053217;28;20371;-53
2021/09/10 04:27:47;;;;;;;10.63;6.68;;;;;;;;;;5052872;28;20079;-54
2021/09/10 04:30:13;;;;;;;9.63;5.93;;;;;;;;;;5052570;28;20063;-54
2021/09/10 04:32:39;;;;;;;9.82;5.68;;;;;;;;;;5053667;28;20036;-53
2021/09/10 04:35:06;;;;;;;11.20;6.30;;;;;;;;;;5053121;28;20132;-54
2021/09/10 04:37:32;;;;;;;9.85;5.95;;;;;;;;;;5053392;28;20056;-53
2021/09/10 04:40:00;;;;;;;12.40;6.30;;;;;;;;;;5053316;28;20446;-53
2021/09/10 04:42:26;;;;;;;11.18;6.18;;;;;;;;;;5052930;28;20082;-53
2021/09/10 04:44:52;;;;;;;11.27;6.25;;;;;;;;;;5052007;28;20033;-53
2021/09/10 04:47:18;;;;;;;8.60;6.47;;;;;;;;;;5053453;28;20496;-54
2021/09/10 04:49:44;;;;;;;12.27;6.60;;;;;;;;;;5053167;28;20029;-53
2021/09/10 04:52:10;;;;;;;9.98;5.70;;;;;;;;;;5052750;28;20032;-53
2021/09/10 04:54:36;;;;;;;12.20;6.32;;;;;;;;;;5052185;28;20450;-53
2021/09/10 04:57:02;;;;;;;14.07;6.30;;;;;;;;;;5052477;28;20036;-54
2021/09/10 04:59:28;;;;;;;12.07;5.75;;;;;;;;;;5052995;28;20394;-54
2021/09/10 05:01:54;;;;;;;14.90;7.38;;;;;;;;;;5052346;28;20094;-53
2021/09/10 05:04:24;;;;;;;12.15;6.20;;;;;;;;;;5052422;28;20419;-53
2021/09/10 05:06:50;;;;;;;10.80;6.07;;;;;;;;;;5052682;28;20362;-54
2021/09/10 05:09:16;;;;;;;11.07;6.03;;;;;;;;;;5053339;28;20044;-54
2021/09/10 05:11:42;;;;;;;14.57;5.97;;;;;;;;;;5052774;28;20135;-54
2021/09/10 05:14:09;;;;;;;14.35;6.90;;;;;;;;;;5052364;28;20427;-54
2021/09/10 05:16:35;;;;;;;11.15;5.68;;;;;;;;;;5037999;28;20031;-53
2021/09/10 05:19:01;;;;;;;11.27;6.03;;;;;;;;;;5042670;28;20458;-53
2021/09/10 05:21:27;;;;;;;10.70;6.20;;;;;;;;;;5052886;28;20025;-54
2021/09/10 05:23:53;;;;;;;12.73;7.07;;;;;;;;;;5051844;28;20415;-54
2021/09/10 05:26:19;;;;;;;10.70;5.78;;;;;;;;;;5033499;28;20025;-54
2021/09/10 05:28:46;;;;;;;16.02;7.57;;;;;;;;;;5047649;28;20370;-53
2021/09/10 05:31:13;;;;;;;16.77;6.72;;;;;;;;;;5039077;28;20072;-53
2021/09/10 05:33:39;;;;;;;13.68;6.47;;;;;;;;;;5032136;28;20022;-53
2021/09/10 05:36:05;;;;;;;9.07;5.03;;;;;;;;;;5032440;28;20029;-53
2021/09/10 05:38:31;;;;;;;19.08;7.07;;;;;;;;;;5032305;28;20589;-54
2021/09/10 05:40:57;;;;;;;10.60;6.43;;;;;;;;;;5032904;28;20057;-53
2021/09/10 05:43:23;;;;;;;11.30;6.00;;;;;;;;;;5042492;28;20044;-53
2021/09/10 05:45:50;;;;;;;8.88;4.97;;;;;;;;;;5043133;28;20076;-54
2021/09/10 05:48:18;;;;;;;10.15;5.10;;;;;;;;;;5032449;28;20105;-53
2021/09/10 05:50:46;;;;;;;15.30;5.70;;;;;;;;;;5032163;28;20029;-54
2021/09/10 05:53:12;;;;;;;10.57;5.40;;;;;;;;;;5032379;28;20156;-54
2021/09/10 05:55:38;;;;;;;11.30;5.57;;;;;;;;;;5047544;28;20025;-54
2021/09/10 05:58:04;;;;;;;7.68;5.25;;;;;;;;;;5051540;28;20040;-54
2021/09/10 06:00:30;;;;;;;13.57;6.05;;;;;;;;;;5048217;28;20052;-53
2021/09/10 06:02:56;;;;;;;12.18;5.72;;;;;;;;;;5034482;28;20452;-54
2021/09/10 06:05:22;;;;;;;10.70;5.88;;;;;;;;;;5031709;28;20021;-54
2021/09/10 06:07:48;;;;;;;11.60;6.72;;;;;;;;;;5032360;28;20029;-54
2021/09/10 06:10:14;;;;;;;10.98;6.38;;;;;;;;;;5031032;28;20066;-54
2021/09/10 06:12:40;;;;;;;11.90;6.10;;;;;;;;;;5036173;28;20021;-54
2021/09/10 06:15:06;;;;;;;10.60;7.15;;;;;;;;;;5051615;28;20514;-54
2021/09/10 06:17:32;;;;;;;12.05;6.55;;;;;;;;;;5031775;28;20064;-54
2021/09/10 06:19:58;;;;;;;11.68;5.45;;;;;;;;;;5032395;28;20083;-54
2021/09/10 06:22:27;;;;;;;12.00;6.45;;;;;;;;;;5032378;28;20026;-54
2021/09/10 06:24:53;;;;;;;11.93;6.45;;;;;;;;;;5031622;28;20033;-54
2021/09/10 06:27:19;;;;;;;11.73;6.57;;;;;;;;;;5033192;28;20026;-54
2021/09/10 06:29:45;;;;;;;13.93;6.35;;;;;;;;;;5050814;28;20036;-54
2021/09/10 06:32:11;;;;;;;13.90;6.22;;;;;;;;;;5037266;28;20431;-54
2021/09/10 06:34:37;;;;;;;13.60;6.70;;;;;;;;;;5034515;28;20109;-54
2021/09/10 06:37:03;;;;;;;11.60;6.43;;;;;;;;;;5036188;28;20041;-54
2021/09/10 06:39:29;;;;;;;16.33;6.80;;;;;;;;;;5036084;28;20045;-54
2021/09/10 06:41:58;;;;;;;12.90;7.43;;;;;;;;;;5036670;28;20052;-54
2021/09/10 06:44:24;;;;;;;14.07;7.60;;;;;;;;;;5050612;28;20036;-54
2021/09/10 06:46:50;;;;;;;12.38;7.63;;;;;;;;;;5052949;28;20043;-54
2021/09/10 06:49:16;;;;;;;10.82;7.10;;;;;;;;;;5035006;28;20455;-54
2021/09/10 06:51:42;;;;;;;15.45;7.63;;;;;;;;;;5035839;28;20044;-54
2021/09/10 06:54:08;;;;;;;13.05;7.18;;;;;;;;;;5034995;28;20033;-54
2021/09/10 06:56:35;;;;;;;16.15;7.75;;;;;;;;;;5035173;28;20358;-54
2021/09/10 06:59:01;;;;;;;19.65;7.90;;;;;;;;;;5050420;28;20029;-54
2021/09/10 07:01:27;;;;;;;14.95;9.07;;;;;;;;;;5047252;28;20537;-54
2021/09/10 07:03:53;;;;;;;18.00;9.68;;;;;;;;;;5034200;28;20125;-54
2021/09/10 07:06:20;;;;;;;18.75;9.32;;;;;;;;;;5035274;28;20459;-54
2021/09/10 07:08:46;;;;;;;19.27;9.43;;;;;;;;;;5034803;28;20033;-54
2021/09/10 07:11:12;;;;;;;15.32;8.73;;;;;;;;;;5035808;28;20033;-54
2021/09/10 07:13:38;;;;;;;16.13;9.15;;;;;;;;;;5046471;28;20021;-54
2021/09/10 07:16:04;;;;;;;23.67;9.43;;;;;;;;;;5049840;28;20034;-54
2021/09/10 07:18:30;;;;;;;17.27;8.73;;;;;;;;;;5033864;28;20060;-54
2021/09/10 07:20:56;;;;;;;15.88;9.00;;;;;;;;;;5034033;28;20514;-54
2021/09/10 07:23:22;;;;;;;16.02;9.60;;;;;;;;;;5034916;28;20021;-54
2021/09/10 07:25:48;;;;;;;17.63;9.25;;;;;;;;;;5034462;28;20075;-54
2021/09/10 07:28:14;;;;;;;20.13;9.55;;;;;;;;;;5043330;28;20126;-54
2021/09/10 07:30:40;;;;;;;19.60;8.55;;;;;;;;;;5054670;28;20021;-54
2021/09/10 07:33:06;;;;;;;17.15;8.50;;;;;;;;;;5034525;28;20044;-54
2021/09/10 07:35:32;;;;;;;12.75;8.65;;;;;;;;;;5034047;28;20014;-54
2021/09/10 07:37:58;;;;;;;14.27;7.53;;;;;;;;;;5034903;28;20458;-54
2021/09/10 07:40:24;;;;;;;15.13;9.05;;;;;;;;;;5034976;28;20083;-54
2021/09/10 07:42:50;;;;;;;16.10;8.43;;;;;;;;;;5040098;28;20017;-54
2021/09/10 07:45:16;;;;;;;21.83;9.88;;;;;;;;;;5053688;28;20431;-54
2021/09/10 07:47:42;;;;;;;18.75;10.55;;;;;;;;;;5039037;28;20087;-54
2021/09/10 07:50:09;;;;;;;16.42;8.35;;;;;;;;;;5034031;28;20091;-52
2021/09/10 07:52:35;;;;;;;13.27;7.88;;;;;;;;;;5033777;28;20596;-52
2021/09/10 07:55:01;;;;;;;11.80;8.23;;;;;;;;;;5033392;28;20040;-51
2021/09/10 07:57:27;;;;;;;10.40;7.40;;;;;;;;;;5034073;28;20022;-52
2021/09/10 07:59:56;;;;;;;10.57;6.60;;;;;;;;;;5047542;28;20028;-52
2021/09/10 08:02:28;;;;;;;18.87;7.60;;;;;;;;;;5042550;28;20037;-52
2021/09/10 08:04:55;;;;;;;16.83;6.47;;;;;;;;;;5033133;28;20074;-51
2021/09/10 08:07:21;;;;;;;19.55;7.57;;;;;;;;;;5034131;28;20505;-51
2021/09/10 08:09:47;;;;;;;16.77;6.55;;;;;;;;;;5034018;28;20355;-51
2021/09/10 08:12:13;;;;;;;14.20;7.35;;;;;;;;;;5034211;28;20025;-51
2021/09/10 08:14:39;;;;;;;10.05;6.82;;;;;;;;;;5044827;28;20439;-51
2021/09/10 08:17:05;;;;;;;17.10;7.82;;;;;;;;;;5046172;28;20032;-52
2021/09/10 08:19:31;;;;;;;11.30;6.97;;;;;;;;;;5033533;28;20115;-52
2021/09/10 08:21:57;;;;;;;18.48;8.10;;;;;;;;;;5034345;28;20049;-51
2021/09/10 08:24:23;;;;;;;13.10;7.75;;;;;;;;;;5033059;28;20049;-51
2021/09/10 08:26:49;;;;;;;14.80;7.38;;;;;;;;;;5034195;28;20510;-52
2021/09/10 08:29:15;;;;;;;14.82;8.68;;;;;;;;;;5041730;28;20040;-51
2021/09/10 08:31:42;;;;;;;18.33;8.43;;;;;;;;;;5050057;28;20029;-51
2021/09/10 08:34:08;;;;;;;20.33;8.75;;;;;;;;;;5033156;28;20029;-51
2021/09/10 08:36:34;;;;;;;18.30;8.13;;;;;;;;;;5034126;28;20367;-51
2021/09/10 08:39:01;;;;;;;17.48;8.27;;;;;;;;;;5033593;28;20029;-50
2021/09/10 08:41:28;;;;;;;13.43;7.75;;;;;;;;;;5033766;28;20025;-51
2021/09/10 08:43:57;;;;;;;16.08;8.43;;;;;;;;;;5038774;28;20065;-51
2021/09/10 08:46:24;;;;;;;16.95;8.73;;;;;;;;;;5052523;28;20358;-51
2021/09/10 08:48:50;;;;;;;12.85;7.60;;;;;;;;;;5033268;28;20045;-51
2021/09/10 08:51:18;;;;;;;15.70;8.45;;;;;;;;;;5033265;28;20021;-51
2021/09/10 08:53:44;;;;;;;17.30;8.77;;;;;;;;;;5032055;28;20021;-51
2021/09/10 08:56:10;;;;;;;13.20;7.85;;;;;;;;;;5032956;28;20029;-51
2021/09/10 08:58:36;;;;;;;11.50;7.72;;;;;;;;;;5038768;28;20047;-51
2021/09/10 09:01:02;;;;;;;20.92;8.15;;;;;;;;;;5045141;28;20013;-51
2021/09/10 09:03:32;;;;;;;14.20;8.60;;;;;;;;;;5038363;28;20032;-51
2021/09/10 09:05:58;;;;;;;13.75;7.60;;;;;;;;;;5041444;28;20021;-51
2021/09/10 09:08:24;;;;;;;16.77;8.55;;;;;;;;;;5037429;28;20049;-51
2021/09/10 09:10:54;;;;;;;14.60;7.82;;;;;;;;;;5032792;28;20028;-51
2021/09/10 09:13:21;;;;;;;13.13;8.20;;;;;;;;;;5037600;28;20061;-51
2021/09/10 09:15:47;;;;;;;13.50;8.35;;;;;;;;;;5040042;28;20022;-51
2021/09/10 09:18:13;;;;;;;15.75;7.82;;;;;;;;;;5040088;28;20033;-51
2021/09/10 09:20:39;;;;;;;18.08;8.20;;;;;;;;;;5040387;28;20355;-51
2021/09/10 09:23:09;;;;;;;13.98;8.35;;;;;;;;;;5041950;28;20028;-51
2021/09/10 09:25:41;;;;;;;13.68;6.95;;;;;;;;;;5042019;28;20079;-51
2021/09/10 09:28:16;;;;;;;11.55;7.28;;;;;;;;;;5042019;28;20033;-51
2021/09/10 09:30:43;;;;;;;13.25;7.57;;;;;;;;;;5043427;28;20025;-51
2021/09/10 09:33:12;;;;;;;15.20;7.25;;;;;;;;;;5038832;28;20021;-51
2021/09/10 09:35:38;;;;;;;12.37;6.27;;;;;;;;;;5034341;28;20410;-51
2021/09/10 09:38:21;;;;;;;9.45;5.28;;;;;;;;;;5038258;28;20371;-51
2021/09/10 09:40:51;;;;;;;11.65;5.55;;;;;;;;;;5040325;28;20475;-51
2021/09/10 09:43:19;;;;;;;12.85;5.95;;;;;;;;;;5040681;28;20113;-51
2021/09/10 09:45:46;;;;;;;11.48;6.72;;;;;;;;;;5045110;28;20112;-51
2021/09/10 09:48:12;;;;;;;11.23;6.35;;;;;;;;;;5040939;28;20452;-51
2021/09/10 09:50:39;;;;;;;9.10;5.85;;;;;;;;;;5032474;28;20047;-51
2021/09/10 09:53:05;;;;;;;13.60;5.93;;;;;;;;;;5032788;28;20025;-51
2021/09/10 09:55:33;;;;;;;10.32;5.88;;;;;;;;;;5031827;28;20151;-51
2021/09/10 09:58:00;;;;;;;9.05;5.38;;;;;;;;;;5032167;28;20029;-51
2021/09/10 10:00:27;;;;;;;10.25;4.85;;;;;;;;;;5049798;28;20025;-51
2021/09/10 10:02:53;;;;;;;6.88;4.28;;;;;;;;;;5044792;28;20486;-51
2021/09/10 10:05:19;;;;;;;11.55;4.75;;;;;;;;;;5033193;28;20029;-51
2021/09/10 10:07:51;;;;;;;8.75;4.97;;;;;;;;;;5036351;28;20013;-51
2021/09/10 10:10:22;;;;;;;7.40;5.03;;;;;;;;;;5038768;28;20038;-51
2021/09/10 10:12:48;;;;;;;7.80;4.72;;;;;;;;;;5035577;28;20033;-51
2021/09/10 10:15:22;;;;;;;7.45;5.13;;;;;;;;;;5053956;28;20033;-51
2021/09/10 10:17:48;;;;;;;6.22;4.45;;;;;;;;;;5050670;28;20052;-51
2021/09/10 10:20:33;;;;;;;8.02;5.05;;;;;;;;;;5035599;28;20048;-51
2021/09/10 10:22:59;;;;;;;9.25;4.72;;;;;;;;;;5036308;28;20049;-51
2021/09/10 10:25:26;;;;;;;8.20;4.80;;;;;;;;;;5035121;28;20494;-51
2021/09/10 10:27:52;;;;;;;8.57;5.07;;;;;;;;;;5035381;28;20459;-51
2021/09/10 10:30:18;;;;;;;7.20;4.75;;;;;;;;;;5053089;28;20033;-51
2021/09/10 10:32:47;;;;;;;8.40;5.35;;;;;;;;;;5051950;28;20033;-51
2021/09/10 10:35:32;;;;;;;11.27;5.72;;;;;;;;;;5035003;28;20112;-51
2021/09/10 10:38:11;;;;;;;10.98;5.32;;;;;;;;;;5036353;28;20026;-51
2021/09/10 10:40:41;;;;;;;8.35;4.38;;;;;;;;;;5035013;28;20451;-51
2021/09/10 10:43:10;;;;;;;8.38;5.22;;;;;;;;;;5035792;28;20121;-51
2021/09/10 10:45:41;;;;;;;8.52;5.38;;;;;;;;;;5046439;28;20373;-51
2021/09/10 10:48:26;;;;;;;10.35;5.72;;;;;;;;;;5054278;28;20031;-51
2021/09/10 10:50:52;;;;;;;11.57;5.50;;;;;;;;;;5054364;28;20079;-51
2021/09/10 10:53:18;;;;;;;8.45;5.25;;;;;;;;;;5051813;28;20030;-51
2021/09/10 10:55:44;;;;;;;12.63;5.43;;;;;;;;;;5044332;28;20020;-51
2021/09/10 10:58:20;;;;;;;7.82;5.55;;;;;;;;;;5051176;28;20417;-51
2021/09/10 11:00:47;;;;;;;9.32;5.57;;;;;;;;;;5036984;28;20160;-51
2021/09/10 11:03:16;;;;;;;10.25;4.82;;;;;;;;;;5036420;28;20430;-51
2021/09/10 11:05:45;;;;;;;10.27;5.10;;;;;;;;;;5043517;28;20022;-51
2021/09/10 11:08:13;;;;;;;8.63;4.95;;;;;;;;;;5043660;28;20037;-51
2021/09/10 11:10:39;;;;;;;6.40;4.60;;;;;;;;;;5042900;28;20024;-51
2021/09/10 11:13:07;;;;;;;8.07;4.63;;;;;;;;;;5045311;28;20029;-51
2021/09/10 11:15:37;;;;;;;8.05;3.90;;;;;;;;;;5044487;28;20060;-51
2021/09/10 11:18:10;;;;;;;10.38;4.40;;;;;;;;;;5038484;28;20463;-52
2021/09/10 11:20:42;;;;;;;10.90;4.90;;;;;;;;;;5044815;28;20025;-51
2021/09/10 11:23:12;;;;;;;5.82;4.05;;;;;;;;;;5042466;28;20036;-51
2021/09/10 11:25:45;;;;;;;8.77;4.47;;;;;;;;;;5034271;28;20060;-51
2021/09/10 11:28:11;;;;;;;12.52;5.05;;;;;;;;;;5034616;28;20086;-51
2021/09/10 11:30:37;;;;;;;15.48;4.82;;;;;;;;;;5053705;28;20025;-51
2021/09/10 11:33:03;;;;;;;6.78;4.47;;;;;;;;;;5052031;28;20029;-51
2021/09/10 11:35:31;;;;;;;8.15;4.50;;;;;;;;;;5035315;28;20078;-51
2021/09/10 11:38:08;;;;;;;7.38;4.82;;;;;;;;;;5043027;28;20048;-51
2021/09/10 11:40:39;;;;;;;10.77;5.18;;;;;;;;;;5043029;28;20118;-51
2021/09/10 11:43:11;;;;;;;15.63;5.28;;;;;;;;;;5043857;28;20017;-52
2021/09/10 11:45:39;;;;;;;7.72;4.88;;;;;;;;;;5044890;28;20048;-52
2021/09/10 11:48:06;;;;;;;6.20;4.53;;;;;;;;;;5045003;28;20556;-52
2021/09/10 11:50:52;;;;;;;6.25;4.22;;;;;;;;;;5042186;28;20025;-52
2021/09/10 11:53:24;;;;;;;8.52;5.00;;;;;;;;;;5041415;28;20020;-51
2021/09/10 11:55:57;;;;;;;8.75;4.32;;;;;;;;;;5041346;28;20363;-51
2021/09/10 11:58:33;;;;;;;6.57;3.95;;;;;;;;;;5043937;28;20351;-51
2021/09/10 12:01:11;;;;;;;5.40;3.38;;;;;;;;;;5046061;28;20025;-51
2021/09/10 12:03:45;;;;;;;8.57;4.70;;;;;;;;;;5039992;28;20495;-51
2021/09/10 12:06:11;;;;;;;6.72;4.30;;;;;;;;;;5043196;28;20026;-52
2021/09/10 12:08:37;;;;;;;6.25;4.40;;;;;;;;;;5040234;28;20044;-51
2021/09/10 12:11:20;;;;;;;5.55;3.53;;;;;;;;;;5034399;28;20018;-51
2021/09/10 12:13:46;;;;;;;9.77;4.47;;;;;;;;;;5032786;28;20075;-51
2021/09/10 12:16:15;;;;;;;9.20;4.18;;;;;;;;;;5050821;28;20119;-51
2021/09/10 12:18:59;;;;;;;7.10;3.83;;;;;;;;;;5049448;28;20056;-50
2021/09/10 12:21:33;;;;;;;5.43;2.78;;;;;;;;;;5033810;28;20033;-51
2021/09/10 12:24:07;;;;;;;5.00;3.22;;;;;;;;;;5033207;28;20163;-51
2021/09/10 12:26:47;;;;;;;4.50;3.53;;;;;;;;;;5033676;28;20032;-52
2021/09/10 12:29:18;;;;;;;8.70;3.70;;;;;;;;;;5033127;28;20332;-51
2021/09/10 12:31:44;;;;;;;5.20;3.83;;;;;;;;;;5053796;28;20400;-51
2021/09/10 12:34:10;;;;;;;7.82;3.45;;;;;;;;;;5044988;28;20108;-51
2021/09/10 12:36:36;;;;;;;5.03;3.50;;;;;;;;;;5033219;28;20056;-51
2021/09/10 12:39:02;;;;;;;4.10;2.40;;;;;;;;;;5033816;28;20037;-51
2021/09/10 12:41:28;;;;;;;7.75;4.25;;;;;;;;;;5034312;28;20616;-51
2021/09/10 12:43:54;;;;;;;5.22;3.28;;;;;;;;;;5032590;28;20036;-51
2021/09/10 12:46:20;;;;;;;7.85;3.25;;;;;;;;;;5047370;28;20444;-51
2021/09/10 12:48:46;;;;;;;9.95;3.70;;;;;;;;;;5040284;28;20079;-51
2021/09/10 12:51:12;;;;;;;6.15;3.88;;;;;;;;;;5042121;28;20493;-51
2021/09/10 12:53:39;;;;;;;4.00;2.85;;;;;;;;;;5039110;28;20028;-51
2021/09/10 12:56:05;;;;;;;6.00;3.25;;;;;;;;;;5040999;28;20057;-50
2021/09/10 12:58:31;;;;;;;5.07;2.78;;;;;;;;;;5042677;28;20017;-51
2021/09/10 13:00:57;;;;;;;5.60;3.47;;;;;;;;;;5043160;28;20031;-51
2021/09/10 13:03:23;;;;;;;6.45;2.88;;;;;;;;;;5043732;28;20022;-51
2021/09/10 13:05:49;;;;;;;4.07;2.45;;;;;;;;;;5039851;28;20398;-51
2021/09/10 13:08:15;;;;;;;4.95;3.05;;;;;;;;;;5041490;28;20032;-51
2021/09/10 13:10:41;;;;;;;3.78;2.80;;;;;;;;;;5042661;28;20075;-54
2021/09/10 13:13:07;;;;;;;3.53;2.47;;;;;;;;;;5032758;28;20053;-53
2021/09/10 13:15:33;;;;;;;8.63;3.03;;;;;;;;;;5046564;28;20059;-54
2021/09/10 13:17:59;;;;;;;4.03;2.70;;;;;;;;;;5052967;28;20112;-53
2021/09/10 13:20:25;;;;;;;5.80;3.42;;;;;;;;;;5038026;28;20208;-54
2021/09/10 13:22:51;;;;;;;5.78;3.42;;;;;;;;;;5039136;28;20033;-53
2021/09/10 13:25:18;;;;;;;5.47;3.50;;;;;;;;;;5039988;28;20066;-53
2021/09/10 13:27:44;;;;;;;6.55;3.80;;;;;;;;;;5042275;28;20032;-53
2021/09/10 13:30:10;;;;;;;6.78;3.22;;;;;;;;;;5041326;28;20041;-54
2021/09/10 13:32:37;;;;;;;5.05;3.35;;;;;;;;;;5042537;28;20029;-54
2021/09/10 13:35:03;;;;;;;4.88;3.35;;;;;;;;;;5034695;28;20022;-53
2021/09/10 13:37:29;;;;;;;4.82;2.95;;;;;;;;;;5032618;28;20025;-53
2021/09/10 13:39:55;;;;;;;9.07;2.92;;;;;;;;;;5032890;28;20022;-53
2021/09/10 13:42:21;;;;;;;4.72;2.42;;;;;;;;;;5032732;28;20021;-54
2021/09/10 13:44:47;;;;;;;4.20;2.80;;;;;;;;;;5036754;28;20028;-53
2021/09/10 13:47:13;;;;;;;5.63;2.65;;;;;;;;;;5052237;28;20024;-54
2021/09/10 13:49:39;;;;;;;4.97;2.25;;;;;;;;;;5045879;28;20041;-53
2021/09/10 13:52:05;;;;;;;4.63;2.67;;;;;;;;;;5032134;28;20017;-53
2021/09/10 13:54:31;;;;;;;4.75;2.65;;;;;;;;;;5031787;28;20034;-53
2021/09/10 13:56:57;;;;;;;3.53;2.20;;;;;;;;;;5032793;28;20021;-53
2021/09/10 13:59:23;;;;;;;6.18;2.97;;;;;;;;;;5034151;28;20033;-53
2021/09/10 14:01:49;;;;;;;6.10;2.85;;;;;;;;;;5052168;28;20025;-53
2021/09/10 14:04:15;;;;;;;4.95;2.90;;;;;;;;;;5049289;28;20029;-53
2021/09/10 14:06:41;;;;;;;3.60;2.53;;;;;;;;;;5032689;28;20055;-53
2021/09/10 14:09:07;;;;;;;8.70;3.22;;;;;;;;;;5032471;28;20037;-54
2021/09/10 14:11:33;;;;;;;4.40;2.55;;;;;;;;;;5032376;28;20073;-53
2021/09/10 14:13:59;;;;;;;4.25;2.95;;;;;;;;;;5036425;28;20718;-53
2021/09/10 14:16:25;;;;;;;6.40;3.03;;;;;;;;;;5044393;28;20024;-53
2021/09/10 14:18:51;;;;;;;6.35;2.60;;;;;;;;;;5036125;28;20466;-53
2021/09/10 14:21:17;;;;;;;5.00;2.90;;;;;;;;;;5031758;28;20243;-54
2021/09/10 14:23:45;;;;;;;6.72;3.03;;;;;;;;;;5031539;28;20439;-53
2021/09/10 14:26:11;;;;;;;3.58;2.53;;;;;;;;;;5032355;28;20029;-54
2021/09/10 14:28:37;;;;;;;6.05;3.22;;;;;;;;;;5032142;28;20095;-54
2021/09/10 14:31:02;;;;;;;6.75;2.97;;;;;;;;;;5031897;28;20404;-53
2021/09/10 14:33:29;;;;;;;4.28;3.22;;;;;;;;;;5041537;28;20033;-53
2021/09/10 14:35:55;;;;;;;4.20;2.90;;;;;;;;;;5031732;28;20212;-54